sensor_id;sensor_type;location;lat;lon;timestamp;temperature;humidity
15574;DHT22;7888;46.748;8.102;2024-01-11T08:58:27;4.50;55.90
15574;DHT22;7888;46.748;8.102;2024-01-11T09:00:53;4.50;56.20
15574;DHT22;7888;46.748;8.102;2024-01-11T09:03:18;4.50;55.90
15574;DHT22;7888;46.748;8.102;2024-01-11T09:05:44;4.60;55.90
15574;DHT22;7888;46.748;8.102;2024-01-11T09:08:10;4.60;55.90
15574;DHT22;7888;46.748;8.102;2024-01-11T09:10:35;4.60;55.90
15574;DHT22;7888;46.748;8.102;2024-01-11T09:13:01;4.60;55.80
15574;DHT22;7888;46.748;8.102;2024-01-11T09:15:27;4.70;55.80
15574;DHT22;7888;46.748;8.102;2024-01-11T09:17:53;4.70;55.80
15574;DHT22;7888;46.748;8.102;2024-01-11T09:20:18;4.80;55.70
15574;DHT22;7888;46.748;8.102;2024-01-11T09:22:44;4.70;55.60
15574;DHT22;7888;46.748;8.102;2024-01-11T09:25:11;4.80;55.60
15574;DHT22;7888;46.748;8.102;2024-01-11T09:27:36;4.80;55.40
15574;DHT22;7888;46.748;8.102;2024-01-11T09:30:02;4.80;55.40
15574;DHT22;7888;46.748;8.102;2024-01-11T09:32:29;4.80;55.40
15574;DHT22;7888;46.748;8.102;2024-01-11T09:34:56;4.80;55.40
15574;DHT22;7888;46.748;8.102;2024-01-11T09:37:22;4.80;55.50
15574;DHT22;7888;46.748;8.102;2024-01-11T09:39:47;4.80;55.50
15574;DHT22;7888;46.748;8.102;2024-01-11T09:42:13;4.80;55.40
15574;DHT22;7888;46.748;8.102;2024-01-11T09:44:39;4.80;55.40
15574;DHT22;7888;46.748;8.102;2024-01-11T09:47:09;4.80;55.30
15574;DHT22;7888;46.748;8.102;2024-01-11T09:49:36;4.70;55.20
15574;DHT22;7888;46.748;8.102;2024-01-11T09:52:05;4.70;55.30
15574;DHT22;7888;46.748;8.102;2024-01-11T09:54:34;4.70;55.30
15574;DHT22;7888;46.748;8.102;2024-01-11T09:57:02;4.70;55.30
15574;DHT22;7888;46.748;8.102;2024-01-11T09:59:30;4.70;55.40
15574;DHT22;7888;46.748;8.102;2024-01-11T10:01:58;4.60;55.30
15574;DHT22;7888;46.748;8.102;2024-01-11T10:04:25;4.60;55.40
15574;DHT22;7888;46.748;8.102;2024-01-11T10:06:52;4.60;55.40
15574;DHT22;7888;46.748;8.102;2024-01-11T10:09:19;4.60;55.50
15574;DHT22;7888;46.748;8.102;2024-01-11T10:11:45;4.60;55.40
15574;DHT22;7888;46.748;8.102;2024-01-11T10:14:14;4.60;55.50
15574;DHT22;7888;46.748;8.102;2024-01-11T10:16:41;4.60;55.60
15574;DHT22;7888;46.748;8.102;2024-01-11T10:19:09;4.60;55.50
15574;DHT22;7888;46.748;8.102;2024-01-11T10:21:38;4.60;55.50
15574;DHT22;7888;46.748;8.102;2024-01-11T10:24:07;4.60;55.50
15574;DHT22;7888;46.748;8.102;2024-01-11T10:26:33;4.60;55.40
15574;DHT22;7888;46.748;8.102;2024-01-11T10:29:02;4.60;55.40
15574;DHT22;7888;46.748;8.102;2024-01-11T10:31:29;4.60;55.40
15574;DHT22;7888;46.748;8.102;2024-01-11T10:33:55;4.70;55.50
15574;DHT22;7888;46.748;8.102;2024-01-11T10:36:20;4.70;55.50
15574;DHT22;7888;46.748;8.102;2024-01-11T10:38:47;4.70;55.40
15574;DHT22;7888;46.748;8.102;2024-01-11T10:41:17;4.70;55.40
15574;DHT22;7888;46.748;8.102;2024-01-11T10:43:46;4.70;55.40
15574;DHT22;7888;46.748;8.102;2024-01-11T10:46:15;4.80;55.40
15574;DHT22;7888;46.748;8.102;2024-01-11T10:48:46;4.80;55.50
15574;DHT22;7888;46.748;8.102;2024-01-11T10:51:16;4.80;55.50
15574;DHT22;7888;46.748;8.102;2024-01-11T10:53:47;4.90;55.70
15574;DHT22;7888;46.748;8.102;2024-01-11T10:56:16;4.90;55.70
15574;DHT22;7888;46.748;8.102;2024-01-11T10:58:44;5.00;55.70
15574;DHT22;7888;46.748;8.102;2024-01-11T11:01:13;5.00;55.60
15574;DHT22;7888;46.748;8.102;2024-01-11T11:03:39;5.10;55.60
15574;DHT22;7888;46.748;8.102;2024-01-11T11:06:09;5.20;55.70
15574;DHT22;7888;46.748;8.102;2024-01-11T11:08:36;5.20;55.60
15574;DHT22;7888;46.748;8.102;2024-01-11T11:11:04;5.30;55.60
15574;DHT22;7888;46.748;8.102;2024-01-11T11:13:32;5.30;55.40
15574;DHT22;7888;46.748;8.102;2024-01-11T11:16:00;5.30;55.40
15574;DHT22;7888;46.748;8.102;2024-01-11T11:18:29;5.40;55.30
15574;DHT22;7888;46.748;8.102;2024-01-11T11:20:55;5.40;55.20
15574;DHT22;7888;46.748;8.102;2024-01-11T11:23:20;5.40;55.20
15574;DHT22;7888;46.748;8.102;2024-01-11T11:25:47;5.50;55.10
15574;DHT22;7888;46.748;8.102;2024-01-11T11:28:16;5.50;55.00
15574;DHT22;7888;46.748;8.102;2024-01-11T11:30:44;5.50;55.00
15574;DHT22;7888;46.748;8.102;2024-01-11T11:33:25;5.50;55.00
15574;DHT22;7888;46.748;8.102;2024-01-11T11:35:57;5.50;54.90
15574;DHT22;7888;46.748;8.102;2024-01-11T11:38:26;5.60;55.10
15574;DHT22;7888;46.748;8.102;2024-01-11T11:40:56;5.60;55.00
15574;DHT22;7888;46.748;8.102;2024-01-11T11:43:23;5.60;54.90
15574;DHT22;7888;46.748;8.102;2024-01-11T11:45:51;5.60;54.90
15574;DHT22;7888;46.748;8.102;2024-01-11T11:53:37;5.60;54.70
15574;DHT22;7888;46.748;8.102;2024-01-11T11:56:04;5.60;54.80
15574;DHT22;7888;46.748;8.102;2024-01-11T11:58:31;5.60;54.80
15574;DHT22;7888;46.748;8.102;2024-01-11T12:00:59;5.60;54.60
15574;DHT22;7888;46.748;8.102;2024-01-11T12:03:32;5.60;54.60
15574;DHT22;7888;46.748;8.102;2024-01-11T12:06:03;5.60;54.60
15574;DHT22;7888;46.748;8.102;2024-01-11T12:08:31;5.60;54.60
15574;DHT22;7888;46.748;8.102;2024-01-11T12:10:58;5.60;54.60
15574;DHT22;7888;46.748;8.102;2024-01-11T12:13:24;5.60;54.60
15574;DHT22;7888;46.748;8.102;2024-01-11T12:15:51;5.60;54.60
15574;DHT22;7888;46.748;8.102;2024-01-11T12:18:17;5.60;54.40
15574;DHT22;7888;46.748;8.102;2024-01-11T12:20:43;5.60;54.40
15574;DHT22;7888;46.748;8.102;2024-01-11T12:23:10;5.50;54.50
15574;DHT22;7888;46.748;8.102;2024-01-11T12:25:40;5.50;54.60
15574;DHT22;7888;46.748;8.102;2024-01-11T12:28:06;5.50;54.60
15574;DHT22;7888;46.748;8.102;2024-01-11T12:30:32;5.50;54.50
15574;DHT22;7888;46.748;8.102;2024-01-11T12:32:59;5.50;54.50
15574;DHT22;7888;46.748;8.102;2024-01-11T12:35:30;5.50;54.60
15574;DHT22;7888;46.748;8.102;2024-01-11T12:38:00;5.60;54.60
15574;DHT22;7888;46.748;8.102;2024-01-11T12:40:32;5.50;54.50
15574;DHT22;7888;46.748;8.102;2024-01-11T12:43:00;5.60;54.50
15574;DHT22;7888;46.748;8.102;2024-01-11T12:45:26;5.60;54.40
15574;DHT22;7888;46.748;8.102;2024-01-11T12:47:53;5.60;54.40
15574;DHT22;7888;46.748;8.102;2024-01-11T12:50:20;5.60;54.30
15574;DHT22;7888;46.748;8.102;2024-01-11T12:52:46;5.60;54.30
15574;DHT22;7888;46.748;8.102;2024-01-11T12:55:19;5.50;54.20
15574;DHT22;7888;46.748;8.102;2024-01-11T12:57:45;5.50;54.10
15574;DHT22;7888;46.748;8.102;2024-01-11T13:00:13;5.50;54.10
15574;DHT22;7888;46.748;8.102;2024-01-11T13:02:41;5.50;54.10
15574;DHT22;7888;46.748;8.102;2024-01-11T13:05:11;5.50;54.10
15574;DHT22;7888;46.748;8.102;2024-01-11T13:07:37;5.50;54.20
15574;DHT22;7888;46.748;8.102;2024-01-11T13:10:04;5.50;54.30
15574;DHT22;7888;46.748;8.102;2024-01-11T13:12:30;5.50;54.30
15574;DHT22;7888;46.748;8.102;2024-01-11T13:14:56;5.50;54.40
15574;DHT22;7888;46.748;8.102;2024-01-11T13:17:22;5.50;54.40
15574;DHT22;7888;46.748;8.102;2024-01-11T13:19:48;5.50;54.40
15574;DHT22;7888;46.748;8.102;2024-01-11T13:22:14;5.50;54.90
15574;DHT22;7888;46.748;8.102;2024-01-11T13:24:40;5.50;54.40
15574;DHT22;7888;46.748;8.102;2024-01-11T13:27:05;5.50;54.40
15574;DHT22;7888;46.748;8.102;2024-01-11T13:29:31;5.50;54.40
15574;DHT22;7888;46.748;8.102;2024-01-11T13:31:57;5.50;54.30
15574;DHT22;7888;46.748;8.102;2024-01-11T13:34:23;5.50;54.30
15574;DHT22;7888;46.748;8.102;2024-01-11T13:36:48;5.50;54.30
15574;DHT22;7888;46.748;8.102;2024-01-11T13:39:14;5.50;54.30
15574;DHT22;7888;46.748;8.102;2024-01-11T13:41:43;5.50;54.30
15574;DHT22;7888;46.748;8.102;2024-01-11T13:44:09;5.50;54.30
15574;DHT22;7888;46.748;8.102;2024-01-11T13:46:37;5.50;54.30
15574;DHT22;7888;46.748;8.102;2024-01-11T13:49:03;5.40;54.30
15574;DHT22;7888;46.748;8.102;2024-01-11T13:51:29;5.50;54.30
15574;DHT22;7888;46.748;8.102;2024-01-11T13:53:57;5.40;54.30
15574;DHT22;7888;46.748;8.102;2024-01-11T13:56:25;5.40;54.30
15574;DHT22;7888;46.748;8.102;2024-01-11T13:58:52;5.40;54.40
15574;DHT22;7888;46.748;8.102;2024-01-11T14:01:18;5.40;54.40
15574;DHT22;7888;46.748;8.102;2024-01-11T14:03:43;5.40;54.30
15574;DHT22;7888;46.748;8.102;2024-01-11T14:06:09;5.40;54.30
15574;DHT22;7888;46.748;8.102;2024-01-11T14:08:35;5.40;54.40
15574;DHT22;7888;46.748;8.102;2024-01-11T14:11:01;5.40;54.40
15574;DHT22;7888;46.748;8.102;2024-01-11T14:13:26;5.40;54.30
15574;DHT22;7888;46.748;8.102;2024-01-11T14:15:52;5.40;54.30
15574;DHT22;7888;46.748;8.102;2024-01-11T14:18:20;5.40;54.30
15574;DHT22;7888;46.748;8.102;2024-01-11T14:20:46;5.40;54.40
15574;DHT22;7888;46.748;8.102;2024-01-11T14:23:12;5.40;54.40
15574;DHT22;7888;46.748;8.102;2024-01-11T14:25:38;5.40;54.40
15574;DHT22;7888;46.748;8.102;2024-01-11T14:28:04;5.40;54.20
15574;DHT22;7888;46.748;8.102;2024-01-11T14:30:30;5.30;54.00
15574;DHT22;7888;46.748;8.102;2024-01-11T14:32:55;5.30;54.10
15574;DHT22;7888;46.748;8.102;2024-01-11T14:35:21;5.30;54.10
15574;DHT22;7888;46.748;8.102;2024-01-11T14:37:47;5.20;54.10
15574;DHT22;7888;46.748;8.102;2024-01-11T14:40:13;5.20;54.30
15574;DHT22;7888;46.748;8.102;2024-01-11T14:42:39;5.20;54.40
15574;DHT22;7888;46.748;8.102;2024-01-11T14:45:07;5.30;54.60
15574;DHT22;7888;46.748;8.102;2024-01-11T14:47:33;5.20;54.50
15574;DHT22;7888;46.748;8.102;2024-01-11T14:49:59;5.30;54.60
15574;DHT22;7888;46.748;8.102;2024-01-11T14:52:25;5.30;54.60
15574;DHT22;7888;46.748;8.102;2024-01-11T14:54:51;5.30;54.60
15574;DHT22;7888;46.748;8.102;2024-01-11T14:57:17;5.30;54.50
15574;DHT22;7888;46.748;8.102;2024-01-11T14:59:43;5.30;54.40
15574;DHT22;7888;46.748;8.102;2024-01-11T15:02:10;5.30;54.20
15574;DHT22;7888;46.748;8.102;2024-01-11T15:04:36;5.30;54.30
15574;DHT22;7888;46.748;8.102;2024-01-11T15:07:03;5.30;54.30
15574;DHT22;7888;46.748;8.102;2024-01-11T15:09:29;5.20;54.30
15574;DHT22;7888;46.748;8.102;2024-01-11T15:11:54;5.20;54.40
15574;DHT22;7888;46.748;8.102;2024-01-11T15:14:20;5.20;54.40
15574;DHT22;7888;46.748;8.102;2024-01-11T15:16:46;5.20;54.40
15574;DHT22;7888;46.748;8.102;2024-01-11T15:19:15;5.20;54.40
15574;DHT22;7888;46.748;8.102;2024-01-11T15:21:41;5.10;54.40
15574;DHT22;7888;46.748;8.102;2024-01-11T15:24:07;5.10;54.40
15574;DHT22;7888;46.748;8.102;2024-01-11T15:26:33;5.10;54.40
15574;DHT22;7888;46.748;8.102;2024-01-11T15:28:59;5.10;54.50
15574;DHT22;7888;46.748;8.102;2024-01-11T15:31:25;5.10;54.50
15574;DHT22;7888;46.748;8.102;2024-01-11T15:33:51;5.10;54.40
15574;DHT22;7888;46.748;8.102;2024-01-11T15:36:17;5.10;54.40
15574;DHT22;7888;46.748;8.102;2024-01-11T15:38:44;5.00;54.30
15574;DHT22;7888;46.748;8.102;2024-01-11T15:41:10;5.00;54.30
15574;DHT22;7888;46.748;8.102;2024-01-11T15:43:36;4.90;54.30
15574;DHT22;7888;46.748;8.102;2024-01-11T15:46:02;4.90;54.40
15574;DHT22;7888;46.748;8.102;2024-01-11T15:48:29;4.90;54.50
15574;DHT22;7888;46.748;8.102;2024-01-11T15:50:55;4.90;54.50
15574;DHT22;7888;46.748;8.102;2024-01-11T15:53:22;4.90;54.60
15574;DHT22;7888;46.748;8.102;2024-01-11T15:55:48;4.80;54.70
15574;DHT22;7888;46.748;8.102;2024-01-11T15:58:15;4.90;54.80
15574;DHT22;7888;46.748;8.102;2024-01-11T16:00:41;4.90;54.80
15574;DHT22;7888;46.748;8.102;2024-01-11T16:03:09;4.90;54.80
15574;DHT22;7888;46.748;8.102;2024-01-11T16:05:35;4.90;54.80
15574;DHT22;7888;46.748;8.102;2024-01-11T16:08:01;5.00;54.90
15574;DHT22;7888;46.748;8.102;2024-01-11T16:10:26;5.00;54.90
15574;DHT22;7888;46.748;8.102;2024-01-11T16:12:52;5.00;54.90
15574;DHT22;7888;46.748;8.102;2024-01-11T16:15:18;5.10;54.90
15574;DHT22;7888;46.748;8.102;2024-01-11T16:17:45;5.10;54.90
15574;DHT22;7888;46.748;8.102;2024-01-11T16:20:11;5.10;54.80
15574;DHT22;7888;46.748;8.102;2024-01-11T16:22:37;5.10;54.70
15574;DHT22;7888;46.748;8.102;2024-01-11T16:25:03;5.10;54.70
15574;DHT22;7888;46.748;8.102;2024-01-11T16:27:29;5.10;54.60
15574;DHT22;7888;46.748;8.102;2024-01-11T16:29:55;5.10;54.50
15574;DHT22;7888;46.748;8.102;2024-01-11T16:32:20;5.10;54.50
15574;DHT22;7888;46.748;8.102;2024-01-11T16:34:47;5.10;54.40
15574;DHT22;7888;46.748;8.102;2024-01-11T16:37:15;5.10;54.40
15574;DHT22;7888;46.748;8.102;2024-01-11T16:39:42;5.10;54.40
15574;DHT22;7888;46.748;8.102;2024-01-11T16:42:08;5.10;54.40
15574;DHT22;7888;46.748;8.102;2024-01-11T16:44:35;5.10;54.30
15574;DHT22;7888;46.748;8.102;2024-01-11T16:47:01;5.10;54.40
15574;DHT22;7888;46.748;8.102;2024-01-11T16:49:28;5.10;54.50
15574;DHT22;7888;46.748;8.102;2024-01-11T16:51:54;5.10;54.60
15574;DHT22;7888;46.748;8.102;2024-01-11T16:54:19;5.10;54.60
15574;DHT22;7888;46.748;8.102;2024-01-11T16:56:46;5.10;54.50
15574;DHT22;7888;46.748;8.102;2024-01-11T16:59:12;5.10;54.50
15574;DHT22;7888;46.748;8.102;2024-01-11T17:01:40;5.00;54.50
15574;DHT22;7888;46.748;8.102;2024-01-11T17:04:06;5.00;54.40
15574;DHT22;7888;46.748;8.102;2024-01-11T17:06:36;5.00;54.30
15574;DHT22;7888;46.748;8.102;2024-01-11T17:09:02;5.00;54.40
15574;DHT22;7888;46.748;8.102;2024-01-11T17:11:28;5.00;54.50
15574;DHT22;7888;46.748;8.102;2024-01-11T17:13:54;4.90;54.60
15574;DHT22;7888;46.748;8.102;2024-01-11T17:16:21;4.90;54.60
15574;DHT22;7888;46.748;8.102;2024-01-11T17:18:48;4.90;54.50
15574;DHT22;7888;46.748;8.102;2024-01-11T17:21:14;4.90;54.40
15574;DHT22;7888;46.748;8.102;2024-01-11T17:23:40;4.90;54.30
15574;DHT22;7888;46.748;8.102;2024-01-11T17:26:06;4.90;54.20
15574;DHT22;7888;46.748;8.102;2024-01-11T17:28:32;4.80;54.30
15574;DHT22;7888;46.748;8.102;2024-01-11T17:30:59;4.80;54.30
15574;DHT22;7888;46.748;8.102;2024-01-11T17:33:25;4.80;54.40
15574;DHT22;7888;46.748;8.102;2024-01-11T17:35:51;4.80;54.40
15574;DHT22;7888;46.748;8.102;2024-01-11T17:38:17;4.80;54.40
15574;DHT22;7888;46.748;8.102;2024-01-11T17:40:42;4.80;54.50
15574;DHT22;7888;46.748;8.102;2024-01-11T17:43:08;4.80;54.50
15574;DHT22;7888;46.748;8.102;2024-01-11T17:45:34;4.80;54.50
15574;DHT22;7888;46.748;8.102;2024-01-11T17:48:01;4.80;54.50
15574;DHT22;7888;46.748;8.102;2024-01-11T17:50:27;4.80;54.50
15574;DHT22;7888;46.748;8.102;2024-01-11T17:52:52;4.80;54.40
15574;DHT22;7888;46.748;8.102;2024-01-11T17:55:18;4.80;54.30
15574;DHT22;7888;46.748;8.102;2024-01-11T17:57:44;4.80;54.40
15574;DHT22;7888;46.748;8.102;2024-01-11T18:00:10;4.80;54.30
15574;DHT22;7888;46.748;8.102;2024-01-11T18:02:38;4.80;54.30
15574;DHT22;7888;46.748;8.102;2024-01-11T18:05:04;4.80;54.30
15574;DHT22;7888;46.748;8.102;2024-01-11T18:07:29;4.70;54.30
15574;DHT22;7888;46.748;8.102;2024-01-11T18:09:55;4.70;54.20
15574;DHT22;7888;46.748;8.102;2024-01-11T18:12:21;4.70;54.30
15574;DHT22;7888;46.748;8.102;2024-01-11T18:14:47;4.70;54.30
15574;DHT22;7888;46.748;8.102;2024-01-11T18:17:13;4.70;54.40
15574;DHT22;7888;46.748;8.102;2024-01-11T18:19:39;4.60;54.30
15574;DHT22;7888;46.748;8.102;2024-01-11T18:22:06;4.60;54.30
15574;DHT22;7888;46.748;8.102;2024-01-11T18:24:34;4.60;54.30
15574;DHT22;7888;46.748;8.102;2024-01-11T18:27:00;4.60;54.30
15574;DHT22;7888;46.748;8.102;2024-01-11T18:29:26;4.50;54.30
15574;DHT22;7888;46.748;8.102;2024-01-11T18:31:52;4.50;54.50
15574;DHT22;7888;46.748;8.102;2024-01-11T18:34:18;4.50;54.50
15574;DHT22;7888;46.748;8.102;2024-01-11T18:36:47;4.50;54.60
15574;DHT22;7888;46.748;8.102;2024-01-11T18:39:13;4.50;54.70
15574;DHT22;7888;46.748;8.102;2024-01-11T18:41:40;4.50;54.70
15574;DHT22;7888;46.748;8.102;2024-01-11T18:44:05;4.50;54.80
15574;DHT22;7888;46.748;8.102;2024-01-11T18:46:36;4.50;54.80
15574;DHT22;7888;46.748;8.102;2024-01-11T18:49:02;4.60;54.90
15574;DHT22;7888;46.748;8.102;2024-01-11T18:51:28;4.60;54.90
15574;DHT22;7888;46.748;8.102;2024-01-11T18:53:54;4.60;54.90
15574;DHT22;7888;46.748;8.102;2024-01-11T18:56:19;4.60;54.90
15574;DHT22;7888;46.748;8.102;2024-01-11T18:58:45;4.70;54.80
15574;DHT22;7888;46.748;8.102;2024-01-11T19:01:12;4.70;54.80
15574;DHT22;7888;46.748;8.102;2024-01-11T19:03:38;4.70;54.80
15574;DHT22;7888;46.748;8.102;2024-01-11T19:06:06;4.70;54.80
15574;DHT22;7888;46.748;8.102;2024-01-11T19:08:33;4.70;55.40
15574;DHT22;7888;46.748;8.102;2024-01-11T19:10:59;4.70;54.70
15574;DHT22;7888;46.748;8.102;2024-01-11T19:13:25;4.70;54.60
15574;DHT22;7888;46.748;8.102;2024-01-11T19:15:51;4.70;54.70
15574;DHT22;7888;46.748;8.102;2024-01-11T19:18:18;4.70;54.70
15574;DHT22;7888;46.748;8.102;2024-01-11T19:20:44;4.70;54.70
15574;DHT22;7888;46.748;8.102;2024-01-11T19:23:10;4.80;54.70
15574;DHT22;7888;46.748;8.102;2024-01-11T19:25:35;4.80;54.60
15574;DHT22;7888;46.748;8.102;2024-01-11T19:28:01;4.70;54.50
15574;DHT22;7888;46.748;8.102;2024-01-11T19:30:28;4.70;54.50
15574;DHT22;7888;46.748;8.102;2024-01-11T19:32:55;4.70;54.50
15574;DHT22;7888;46.748;8.102;2024-01-11T19:35:20;4.70;54.60
15574;DHT22;7888;46.748;8.102;2024-01-11T19:37:46;4.70;54.60
15574;DHT22;7888;46.748;8.102;2024-01-11T19:40:12;4.70;54.60
15574;DHT22;7888;46.748;8.102;2024-01-11T19:42:40;4.60;54.60
15574;DHT22;7888;46.748;8.102;2024-01-11T19:45:07;4.60;54.60
15574;DHT22;7888;46.748;8.102;2024-01-11T19:47:33;4.60;54.70
15574;DHT22;7888;46.748;8.102;2024-01-11T19:50:04;4.60;54.90
15574;DHT22;7888;46.748;8.102;2024-01-11T19:52:30;4.60;54.90
15574;DHT22;7888;46.748;8.102;2024-01-11T19:54:57;4.60;54.90
15574;DHT22;7888;46.748;8.102;2024-01-11T19:57:23;4.70;55.10
15574;DHT22;7888;46.748;8.102;2024-01-11T19:59:49;4.70;55.00
15574;DHT22;7888;46.748;8.102;2024-01-11T20:02:15;4.70;54.90
15574;DHT22;7888;46.748;8.102;2024-01-11T20:04:41;4.70;54.90
15574;DHT22;7888;46.748;8.102;2024-01-11T20:07:07;4.70;54.80
15574;DHT22;7888;46.748;8.102;2024-01-11T20:09:33;4.70;54.70
15574;DHT22;7888;46.748;8.102;2024-01-11T20:11:59;4.70;54.60
15574;DHT22;7888;46.748;8.102;2024-01-11T20:14:25;4.60;54.60
15574;DHT22;7888;46.748;8.102;2024-01-11T20:16:52;4.60;54.50
15574;DHT22;7888;46.748;8.102;2024-01-11T20:19:18;4.60;54.50
15574;DHT22;7888;46.748;8.102;2024-01-11T20:21:46;4.60;54.60
15574;DHT22;7888;46.748;8.102;2024-01-11T20:24:12;4.60;54.60
15574;DHT22;7888;46.748;8.102;2024-01-11T20:26:38;4.50;54.60
15574;DHT22;7888;46.748;8.102;2024-01-11T20:29:04;4.50;54.70
15574;DHT22;7888;46.748;8.102;2024-01-11T20:31:29;4.50;54.70
15574;DHT22;7888;46.748;8.102;2024-01-11T20:33:57;4.50;54.80
15574;DHT22;7888;46.748;8.102;2024-01-11T20:36:27;4.50;54.90
15574;DHT22;7888;46.748;8.102;2024-01-11T20:38:54;4.50;54.90
15574;DHT22;7888;46.748;8.102;2024-01-11T20:41:20;4.50;54.80
15574;DHT22;7888;46.748;8.102;2024-01-11T20:43:46;4.50;54.80
15574;DHT22;7888;46.748;8.102;2024-01-11T20:46:23;4.40;54.70
15574;DHT22;7888;46.748;8.102;2024-01-11T20:48:49;4.40;54.70
15574;DHT22;7888;46.748;8.102;2024-01-11T20:51:15;4.40;54.70
15574;DHT22;7888;46.748;8.102;2024-01-11T20:53:46;4.40;54.70
15574;DHT22;7888;46.748;8.102;2024-01-11T20:56:15;4.30;54.60
15574;DHT22;7888;46.748;8.102;2024-01-11T20:58:44;4.30;54.70
15574;DHT22;7888;46.748;8.102;2024-01-11T21:01:10;4.30;54.70
15574;DHT22;7888;46.748;8.102;2024-01-11T21:03:36;4.30;54.70
15574;DHT22;7888;46.748;8.102;2024-01-11T21:06:03;4.30;54.70
15574;DHT22;7888;46.748;8.102;2024-01-11T21:08:30;4.30;54.70
15574;DHT22;7888;46.748;8.102;2024-01-11T21:10:56;4.20;54.70
15574;DHT22;7888;46.748;8.102;2024-01-11T21:13:22;4.20;54.70
15574;DHT22;7888;46.748;8.102;2024-01-11T21:15:50;4.20;54.80
15574;DHT22;7888;46.748;8.102;2024-01-11T21:18:15;4.20;54.90
15574;DHT22;7888;46.748;8.102;2024-01-11T21:20:41;4.10;54.90
15574;DHT22;7888;46.748;8.102;2024-01-11T21:23:11;4.10;54.90
15574;DHT22;7888;46.748;8.102;2024-01-11T21:25:37;4.10;55.00
15574;DHT22;7888;46.748;8.102;2024-01-11T21:28:03;4.10;55.00
15574;DHT22;7888;46.748;8.102;2024-01-11T21:30:30;4.10;55.00
15574;DHT22;7888;46.748;8.102;2024-01-11T21:32:56;4.10;55.00
15574;DHT22;7888;46.748;8.102;2024-01-11T21:35:22;4.00;55.10
15574;DHT22;7888;46.748;8.102;2024-01-11T21:37:48;4.00;55.20
15574;DHT22;7888;46.748;8.102;2024-01-11T21:40:14;4.00;55.20
15574;DHT22;7888;46.748;8.102;2024-01-11T21:42:47;4.00;55.20
15574;DHT22;7888;46.748;8.102;2024-01-11T21:45:13;4.00;55.20
15574;DHT22;7888;46.748;8.102;2024-01-11T21:47:38;4.00;55.20
15574;DHT22;7888;46.748;8.102;2024-01-11T21:50:04;4.00;55.20
15574;DHT22;7888;46.748;8.102;2024-01-11T21:52:31;4.00;55.20
15574;DHT22;7888;46.748;8.102;2024-01-11T21:54:56;4.00;55.20
15574;DHT22;7888;46.748;8.102;2024-01-11T21:57:22;4.00;55.30
15574;DHT22;7888;46.748;8.102;2024-01-11T21:59:48;4.00;55.30
15574;DHT22;7888;46.748;8.102;2024-01-11T22:02:13;4.00;55.30
15574;DHT22;7888;46.748;8.102;2024-01-11T22:04:39;4.00;55.20
15574;DHT22;7888;46.748;8.102;2024-01-11T22:07:05;4.00;55.20
15574;DHT22;7888;46.748;8.102;2024-01-11T22:09:30;4.00;55.10
15574;DHT22;7888;46.748;8.102;2024-01-11T22:11:57;4.00;55.10
15574;DHT22;7888;46.748;8.102;2024-01-11T22:14:23;4.00;55.00
15574;DHT22;7888;46.748;8.102;2024-01-11T22:16:48;4.00;54.90
15574;DHT22;7888;46.748;8.102;2024-01-11T22:19:15;3.90;54.90
15574;DHT22;7888;46.748;8.102;2024-01-11T22:21:41;3.90;54.80
15574;DHT22;7888;46.748;8.102;2024-01-11T22:24:07;3.90;54.90
15574;DHT22;7888;46.748;8.102;2024-01-11T22:26:33;3.80;54.90
15574;DHT22;7888;46.748;8.102;2024-01-11T22:28:59;3.80;55.10
15574;DHT22;7888;46.748;8.102;2024-01-11T22:31:32;3.80;55.20
15574;DHT22;7888;46.748;8.102;2024-01-11T22:33:59;3.80;55.30
15574;DHT22;7888;46.748;8.102;2024-01-11T22:36:25;3.80;55.30
15574;DHT22;7888;46.748;8.102;2024-01-11T22:38:53;3.80;55.40
15574;DHT22;7888;46.748;8.102;2024-01-11T22:41:19;3.90;55.40
15574;DHT22;7888;46.748;8.102;2024-01-11T22:43:45;3.90;55.40
15574;DHT22;7888;46.748;8.102;2024-01-11T22:46:11;3.90;55.50
15574;DHT22;7888;46.748;8.102;2024-01-11T22:48:36;4.00;55.50
15574;DHT22;7888;46.748;8.102;2024-01-11T22:51:06;4.00;55.40
15574;DHT22;7888;46.748;8.102;2024-01-11T22:53:35;4.00;55.30
15574;DHT22;7888;46.748;8.102;2024-01-11T22:56:01;4.00;55.30
15574;DHT22;7888;46.748;8.102;2024-01-11T22:58:27;4.00;55.20
15574;DHT22;7888;46.748;8.102;2024-01-11T23:00:53;4.00;55.10
15574;DHT22;7888;46.748;8.102;2024-01-11T23:03:21;4.00;55.00
15574;DHT22;7888;46.748;8.102;2024-01-11T23:05:47;4.00;55.00
15574;DHT22;7888;46.748;8.102;2024-01-11T23:08:13;4.00;54.90
15574;DHT22;7888;46.748;8.102;2024-01-11T23:10:38;3.90;54.80
15574;DHT22;7888;46.748;8.102;2024-01-11T23:13:04;3.90;54.80
15574;DHT22;7888;46.748;8.102;2024-01-11T23:15:31;3.90;54.80
15574;DHT22;7888;46.748;8.102;2024-01-11T23:18:00;3.90;54.80
15574;DHT22;7888;46.748;8.102;2024-01-11T23:20:26;3.80;54.80
15574;DHT22;7888;46.748;8.102;2024-01-11T23:22:52;3.80;54.80
15574;DHT22;7888;46.748;8.102;2024-01-11T23:25:18;3.80;54.80
15574;DHT22;7888;46.748;8.102;2024-01-11T23:27:43;3.80;54.80
15574;DHT22;7888;46.748;8.102;2024-01-11T23:30:09;3.80;54.90
15574;DHT22;7888;46.748;8.102;2024-01-11T23:32:36;3.70;54.90
15574;DHT22;7888;46.748;8.102;2024-01-11T23:35:03;3.70;55.00
15574;DHT22;7888;46.748;8.102;2024-01-11T23:37:29;3.70;55.00
15574;DHT22;7888;46.748;8.102;2024-01-11T23:39:55;3.70;55.10
15574;DHT22;7888;46.748;8.102;2024-01-11T23:42:20;3.70;55.10
15574;DHT22;7888;46.748;8.102;2024-01-11T23:44:46;3.80;55.20
15574;DHT22;7888;46.748;8.102;2024-01-11T23:47:12;3.80;55.20
15574;DHT22;7888;46.748;8.102;2024-01-11T23:49:38;3.80;55.10
15574;DHT22;7888;46.748;8.102;2024-01-11T23:52:04;3.80;55.00
15574;DHT22;7888;46.748;8.102;2024-01-11T23:54:30;3.70;54.90
15574;DHT22;7888;46.748;8.102;2024-01-11T23:56:56;3.70;54.80
15574;DHT22;7888;46.748;8.102;2024-01-11T23:59:22;3.70;54.80
